Main page
METAR-TAF:

METAR-TAF

Airports :

Vienna, Austria

Vienna International Airport

latitude: 48-07N, longitude: 016-34E, elevation: 183 m

Current weather observation

The report was made 36 minutes ago, at 04:50 UTC
Wind 9 kt from the North
Temperature 4°C
Humidity 75%
Pressure 1022 hPa
Visibility 10 km or more
no clouds below 1500 m and no cumulonimbus

METAR: LOWW 260450Z 36009KT CAVOK 04/M00 Q1022 NOSIG

Time: 07:26 (05:26 UTC)

Forecast

The report was made 6 hours and 11 minutes ago, at 23:15 UTC
Forecast valid from 26 at 00 UTC to 27 at 06 UTC
Wind 7 kt from the North/Northwest
Visibility 10 km or more
no clouds below 1500 m and no cumulonimbus
Temporary
from 26 at 07 UTC to 26 at 18 UTC
Wind 13 kt from the North
Becoming
from 27 at 00 UTC to 27 at 02 UTC
Wind 3 kt from the West/Northwest

TAF: LOWW 252315Z 2600/2706 33007KT CAVOK TX10/2612Z TNM01/2703Z TEMPO 2607/2618 01013KT BECMG 2700/2702 30003KT

Weather observations and forecasts of more than 4000 airports (METAR and TAF reports).

The available stations are represented by yellow and red dots on the map.

Hover mouse over dot to see the name of the station.

Then click to see weather observations and forecasts.

To change the map : click on the green buttons with a black cross to zoom in, on the green button with a dash to zoom out, or on the green arrows for adjacent maps.


METAR-TAF: